Time;durP1;ratioP1;P1;durP2;ratioP2;P2;SDS_P1;SDS_P2;PMS_P1;PMS_P2;Temp;Humidity;BMP_temperature;BMP_pressure;BME280_temperature;BME280_humidity;BME280_pressure;Samples;Min_cycle;Max_cycle;Signal;HPM_P1;HPM_P2
2024/02/11 00:02:23;;;;;;;56.87;28.77;;;;;;;6.94;100.00;98574.37;4977558;57;1140938;-81
2024/02/11 00:07:29;;;;;;;55.67;28.35;;;;;;;6.90;100.00;98574.30;5042321;57;1140815;-80
2024/02/11 00:12:36;;;;;;;44.83;23.50;;;;;;;6.91;100.00;98565.93;4998073;58;1140617;-80
2024/02/11 00:17:46;;;;;;;44.97;22.67;;;;;;;6.90;100.00;98557.22;5041436;57;1140588;-77
2024/02/11 00:22:53;;;;;;;54.50;28.97;;;;;;;6.90;100.00;98555.08;4989645;58;1141590;-81
2024/02/11 00:27:59;;;;;;;54.77;27.93;;;;;;;6.88;100.00;98565.73;4927430;58;1140835;-77
2024/02/11 00:33:09;;;;;;;56.23;27.73;;;;;;;6.88;100.00;98560.47;4969697;58;1140450;-81
2024/02/11 00:38:17;;;;;;;58.57;30.40;;;;;;;6.86;100.00;98558.98;4927604;58;1141449;-77
2024/02/11 00:43:23;;;;;;;48.83;26.53;;;;;;;6.85;100.00;98559.95;4873128;59;1141158;-82
2024/02/11 00:48:29;;;;;;;57.27;28.30;;;;;;;6.85;100.00;98561.27;4898816;59;1141021;-82
2024/02/11 00:53:36;;;;;;;55.37;27.40;;;;;;;6.82;100.00;98556.30;4885822;58;1141054;-79
2024/02/11 00:58:41;;;;;;;52.83;26.97;;;;;;;6.80;100.00;98559.06;4975887;58;1141127;-82
2024/02/11 01:03:47;;;;;;;54.37;27.97;;;;;;;6.80;100.00;98556.44;4699714;61;1141249;-81
2024/02/11 01:08:53;;;;;;;51.70;25.70;;;;;;;6.79;100.00;98551.32;4668053;59;1141129;-81
2024/02/11 01:13:58;;;;;;;45.47;23.07;;;;;;;6.77;100.00;98550.63;4732374;59;1141389;-79
2024/02/11 01:19:04;;;;;;;55.47;29.17;;;;;;;6.76;100.00;98556.85;4733540;59;1141071;-78
2024/02/11 01:24:10;;;;;;;53.30;25.63;;;;;;;6.73;100.00;98551.39;4687956;60;1141218;-80
2024/02/11 01:29:15;;;;;;;46.08;22.27;;;;;;;6.68;100.00;98543.13;4863767;58;1141186;-80
2024/02/11 01:34:21;;;;;;;43.43;25.13;;;;;;;6.70;100.00;98545.14;4909461;59;1140759;-79
2024/02/11 01:39:27;;;;;;;49.23;25.30;;;;;;;6.65;100.00;98540.30;4888132;59;1141472;-81
2024/02/11 01:44:32;;;;;;;50.27;25.57;;;;;;;6.64;100.00;98539.13;4965376;58;1141514;-79
2024/02/11 01:49:39;;;;;;;52.47;26.57;;;;;;;6.62;100.00;98531.39;4875660;58;1140967;-81
2024/02/11 01:54:45;;;;;;;50.83;25.87;;;;;;;6.60;100.00;98528.55;4885446;58;1140876;-78
2024/02/11 01:59:51;;;;;;;52.47;23.23;;;;;;;6.55;100.00;98513.25;4912168;58;1141318;-80
2024/02/11 02:04:59;;;;;;;47.90;24.47;;;;;;;6.51;100.00;98518.91;4901439;58;1140873;-81
2024/02/11 02:10:05;;;;;;;49.17;25.20;;;;;;;6.48;100.00;98512.63;5019824;58;1140622;-79
2024/02/11 02:15:10;;;;;;;44.97;23.33;;;;;;;6.46;100.00;98509.31;4864684;58;1140900;-79
2024/02/11 02:20:16;;;;;;;60.17;26.27;;;;;;;6.45;100.00;98499.30;4690524;61;1140831;-80
2024/02/11 02:25:22;;;;;;;49.43;26.60;;;;;;;6.42;100.00;98505.31;4644660;62;1140820;-80
2024/02/11 02:30:28;;;;;;;52.17;25.37;;;;;;;6.43;100.00;98507.80;4553324;59;1140791;-81
2024/02/11 02:35:36;;;;;;;53.87;28.37;;;;;;;6.43;100.00;98506.48;4876651;59;1140576;-79
2024/02/11 02:40:41;;;;;;;58.52;26.70;;;;;;;6.44;100.00;98507.31;4823748;58;1141028;-78
2024/02/11 02:45:47;;;;;;;56.03;28.07;;;;;;;6.46;100.00;98504.06;4969206;58;1141462;-81
2024/02/11 02:50:54;;;;;;;59.17;29.43;;;;;;;6.42;100.00;98488.23;5018685;58;1141492;-79
2024/02/11 02:55:59;;;;;;;57.63;29.03;;;;;;;6.43;100.00;98489.90;5021836;58;1140644;-81
2024/02/11 03:01:05;;;;;;;60.70;28.33;;;;;;;6.43;100.00;98488.10;4999746;58;1140515;-81
2024/02/11 03:06:10;;;;;;;58.50;29.45;;;;;;;6.40;100.00;98469.20;5019036;58;1140453;-79
2024/02/11 03:11:16;;;;;;;61.20;30.32;;;;;;;6.38;100.00;98474.59;4955405;58;1140844;-80
2024/02/11 03:16:23;;;;;;;65.08;31.62;;;;;;;6.35;100.00;98476.19;4955632;59;1140654;-80
2024/02/11 03:21:29;;;;;;;52.43;28.77;;;;;;;6.34;100.00;98474.05;5012843;58;1140588;-78
2024/02/11 03:26:36;;;;;;;54.33;25.50;;;;;;;6.37;100.00;98486.06;4976204;58;1140845;-81
2024/02/11 03:31:42;;;;;;;63.53;31.13;;;;;;;6.38;100.00;98483.78;5036573;58;1141331;-78
2024/02/11 03:36:47;;;;;;;61.67;30.80;;;;;;;6.37;100.00;98487.86;4971857;58;1141104;-79
2024/02/11 03:41:53;;;;;;;59.00;30.20;;;;;;;6.39;100.00;98491.17;5000894;58;1140571;-79
2024/02/11 03:47:02;;;;;;;59.20;29.73;;;;;;;6.38;100.00;98491.66;5022916;58;1141017;-80
2024/02/11 03:52:06;;;;;;;63.97;31.50;;;;;;;6.38;100.00;98489.03;5004116;58;1141259;-78
2024/02/11 03:57:12;;;;;;;56.77;27.50;;;;;;;6.34;100.00;98488.97;4991597;58;1140612;-81
2024/02/11 04:02:18;;;;;;;52.20;26.68;;;;;;;6.34;100.00;98479.78;5005829;58;1141315;-78
2024/02/11 04:07:23;;;;;;;67.83;31.83;;;;;;;6.32;100.00;98485.17;5048307;58;1141429;-79
2024/02/11 04:12:30;;;;;;;60.27;31.30;;;;;;;6.33;100.00;98482.89;4969524;58;1140660;-82
2024/02/11 04:17:36;;;;;;;63.57;29.90;;;;;;;6.34;100.00;98477.98;4975548;58;1140671;-78
2024/02/11 04:22:45;;;;;;;66.83;32.23;;;;;;;6.34;100.00;98471.42;4981450;58;1140766;-80
2024/02/11 04:27:51;;;;;;;69.07;33.63;;;;;;;6.36;100.00;98471.28;5008373;58;1140962;-80
2024/02/11 04:33:06;;;;;;;65.87;32.00;;;;;;;6.38;100.00;98474.59;4948426;58;1140658;-81
2024/02/11 04:38:17;;;;;;;68.07;31.63;;;;;;;6.40;100.00;98469.20;5038611;58;1140781;-78
2024/02/11 04:43:17;;;;;;;64.37;32.90;;;;;;;6.39;100.00;98464.44;4974425;58;1140520;-78
2024/02/11 04:48:25;;;;;;;72.27;32.70;;;;;;;6.41;100.00;98470.38;4968904;58;1140803;-77
2024/02/11 04:53:31;;;;;;;72.10;33.83;;;;;;;6.45;100.00;98456.45;4987563;58;1140546;-82
2024/02/11 04:58:37;;;;;;;69.27;33.27;;;;;;;6.45;100.00;98457.77;4974097;58;1140688;-81
2024/02/11 05:03:46;;;;;;;69.57;31.77;;;;;;;6.48;100.00;98461.42;4980610;59;1140575;-81
2024/02/11 05:08:50;;;;;;;72.53;33.70;;;;;;;6.50;100.00;98456.86;4983073;58;1140816;-78
2024/02/11 05:13:55;;;;;;;64.97;32.97;;;;;;;6.51;100.00;98444.08;4931113;58;1140985;-80
2024/02/11 05:19:01;;;;;;;67.13;32.17;;;;;;;6.53;100.00;98444.77;4966637;57;1140846;-80
2024/02/11 05:24:07;;;;;;;67.22;32.60;;;;;;;6.53;100.00;98436.88;5138838;55;1141217;-77
2024/02/11 05:29:14;;;;;;;67.73;31.60;;;;;;;6.56;100.00;98443.17;5045410;55;1141200;-80
2024/02/11 05:34:21;;;;;;;64.95;30.62;;;;;;;6.55;100.00;98439.72;4919627;59;1141339;-79
2024/02/11 05:39:30;;;;;;;68.57;31.73;;;;;;;6.56;100.00;98434.80;4963098;59;1140907;-78
2024/02/11 05:44:34;;;;;;;73.67;33.83;;;;;;;6.56;100.00;98429.55;4845248;59;1141334;-81
2024/02/11 05:49:41;;;;;;;73.60;33.80;;;;;;;6.57;100.00;98434.32;4877968;59;1140650;-78
2024/02/11 05:54:47;;;;;;;69.97;32.37;;;;;;;6.58;100.00;98429.38;4972236;57;1141191;-81
2024/02/11 05:59:53;;;;;;;79.40;36.23;;;;;;;6.58;100.00;98424.95;4996647;57;1140458;-79
2024/02/11 06:04:59;;;;;;;65.97;32.50;;;;;;;6.60;100.00;98434.00;5078296;56;1140922;-80
2024/02/11 06:10:05;;;;;;;66.07;33.30;;;;;;;6.61;100.00;98436.97;5014449;56;1140493;-78
2024/02/11 06:15:14;;;;;;;74.03;35.17;;;;;;;6.62;100.00;98432.89;4923753;57;1141163;-80
2024/02/11 06:20:21;;;;;;;66.63;32.33;;;;;;;6.64;100.00;98432.75;4927681;57;1141083;-81
2024/02/11 06:25:27;;;;;;;67.23;32.47;;;;;;;6.64;100.00;98436.20;4867317;58;1141833;-78
2024/02/11 06:30:33;;;;;;;61.50;32.53;;;;;;;6.66;100.00;98436.89;4889610;58;1140916;-82
2024/02/11 06:35:39;;;;;;;65.23;32.97;;;;;;;6.68;100.00;98438.89;4921176;58;1141074;-77
2024/02/11 06:40:45;;;;;;;67.00;33.77;;;;;;;6.70;100.00;98436.95;4908902;58;1140822;-80
2024/02/11 06:45:51;;;;;;;67.37;33.03;;;;;;;6.73;100.00;98442.38;4831245;58;1239161;-79
2024/02/11 06:50:58;;;;;;;64.83;31.90;;;;;;;6.72;100.00;98443.86;4936229;58;1140555;-81
2024/02/11 06:56:04;;;;;;;72.47;33.50;;;;;;;6.72;100.00;98447.80;4991038;58;1140977;-79
2024/02/11 07:01:12;;;;;;;71.17;34.50;;;;;;;6.73;100.00;98451.56;4875605;59;1140548;-80
2024/02/11 07:06:16;;;;;;;62.47;32.40;;;;;;;6.74;100.00;98447.97;4894343;59;1140982;-79
2024/02/11 07:11:22;;;;;;;57.33;30.60;;;;;;;6.73;100.00;98458.62;4917579;58;1141379;-77
2024/02/11 07:16:28;;;;;;;63.83;30.93;;;;;;;6.75;100.00;98457.99;4985849;58;1140929;-78
2024/02/11 07:21:36;;;;;;;60.10;31.70;;;;;;;6.76;100.00;98457.85;4914044;58;1140529;-77
2024/02/11 07:26:42;;;;;;;70.10;35.23;;;;;;;6.78;100.00;98460.34;4878337;58;1140471;-78
2024/02/11 07:31:48;;;;;;;66.63;31.57;;;;;;;6.76;100.00;98460.48;4816920;59;1141107;-79
2024/02/11 07:36:54;;;;;;;57.67;29.83;;;;;;;6.74;100.00;98453.71;4859203;57;1142419;-80
2024/02/11 07:42:00;;;;;;;58.40;28.03;;;;;;;6.75;100.00;98451.42;5041355;57;1140528;-78
2024/02/11 07:47:07;;;;;;;64.00;32.43;;;;;;;6.73;100.00;98454.20;4944780;57;1140813;-78
2024/02/11 07:52:15;;;;;;;64.77;30.73;;;;;;;6.75;100.00;98469.81;5051727;57;1140772;-83
2024/02/11 07:57:20;;;;;;;61.45;29.20;;;;;;;6.75;100.00;98468.50;5042970;57;1140816;-78
2024/02/11 08:02:26;;;;;;;65.93;34.00;;;;;;;6.74;100.00;98468.98;5018075;58;1140597;-77
2024/02/11 08:07:31;;;;;;;66.57;32.07;;;;;;;6.74;100.00;98474.72;5009552;57;1140540;-78
2024/02/11 08:12:37;;;;;;;62.67;29.40;;;;;;;6.75;100.00;98469.81;4980639;57;1140705;-78
2024/02/11 08:17:43;;;;;;;69.87;33.30;;;;;;;6.77;100.00;98473.12;5024354;57;1141064;-78
2024/02/11 08:22:49;;;;;;;69.43;29.47;;;;;;;6.79;100.00;98466.77;4982754;57;1141031;-81
2024/02/11 08:27:55;;;;;;;64.45;32.17;;;;;;;6.81;100.00;98466.14;4964198;57;1141186;-81
2024/02/11 08:33:01;;;;;;;65.10;31.07;;;;;;;6.84;100.00;98469.80;4979123;57;1140747;-77
2024/02/11 08:38:08;;;;;;;60.54;30.46;;;;;;;6.88;100.00;98468.99;4903562;58;1141177;-79
2024/02/11 08:43:14;;;;;;;68.03;30.80;;;;;;;6.90;100.00;98463.94;4923248;57;1141329;-81
2024/02/11 08:48:20;;;;;;;55.97;30.77;;;;;;;6.92;100.00;98476.93;4953223;57;1141032;-78
2024/02/11 08:53:26;;;;;;;65.67;31.33;;;;;;;6.94;100.00;98471.88;4952339;57;1141046;-78
2024/02/11 08:58:32;;;;;;;59.30;30.40;;;;;;;6.96;100.00;98473.88;4921282;57;1141040;-79
2024/02/11 09:03:39;;;;;;;58.40;27.77;;;;;;;7.02;100.00;98479.05;4916045;57;1141004;-80
2024/02/11 09:08:44;;;;;;;54.83;29.23;;;;;;;7.06;100.00;98479.90;4962775;57;1140521;-77
2024/02/11 09:13:50;;;;;;;60.00;27.43;;;;;;;7.10;100.00;98472.55;4833411;58;1141566;-81
2024/02/11 09:18:56;;;;;;;57.10;29.20;;;;;;;7.15;100.00;98472.12;4821375;59;1140905;-80
2024/02/11 09:24:01;;;;;;;59.97;29.10;;;;;;;7.14;100.00;98476.55;4881008;58;1140962;-77
2024/02/11 09:29:07;;;;;;;55.70;27.40;;;;;;;7.17;100.00;98474.13;4834132;59;1141230;-81
2024/02/11 09:34:13;;;;;;;54.45;29.30;;;;;;;7.20;100.00;98462.80;4908169;58;1141129;-77
2024/02/11 09:39:19;;;;;;;53.63;27.63;;;;;;;7.22;100.00;98475.31;4820870;58;1140874;-83
2024/02/11 09:44:28;;;;;;;61.07;29.90;;;;;;;7.27;100.00;98466.50;4871073;58;1141110;-82
2024/02/11 09:49:35;;;;;;;58.50;29.00;;;;;;;7.29;100.00;98467.19;4919792;58;1141260;-81
2024/02/11 09:54:44;;;;;;;69.83;33.57;;;;;;;7.31;100.00;98472.30;4836585;59;1141304;-80
2024/02/11 09:59:49;;;;;;;57.20;30.20;;;;;;;7.33;100.00;98471.15;4888229;58;1140766;-79
2024/02/11 10:05:00;;;;;;;53.43;28.47;;;;;;;7.34;100.00;98457.03;4873388;57;1140882;-79
2024/02/11 10:10:06;;;;;;;47.10;26.17;;;;;;;7.36;100.00;98457.71;4869667;57;1141114;-77
2024/02/11 10:15:16;;;;;;;52.68;26.46;;;;;;;7.39;100.00;98453.47;4859481;58;1140883;-81
2024/02/11 10:20:23;;;;;;;66.73;37.60;;;;;;;7.39;100.00;98453.47;4838500;58;1140757;-81
2024/02/11 10:25:28;;;;;;;57.50;37.43;;;;;;;7.41;100.00;98462.05;4776760;59;1141303;-80
2024/02/11 10:30:37;;;;;;;63.07;37.63;;;;;;;7.41;100.00;98455.95;4901963;57;1141005;-75
2024/02/11 10:35:42;;;;;;;51.67;30.60;;;;;;;7.40;100.00;98455.13;4846638;58;1140914;-83
2024/02/11 10:40:48;;;;;;;48.47;31.20;;;;;;;7.43;100.00;98443.98;4824432;59;1140898;-77
2024/02/11 10:45:54;;;;;;;42.80;26.13;;;;;;;7.44;100.00;98441.69;4837860;57;1141190;-76
2024/02/11 10:51:24;;;;;;;47.67;25.70;;;;;;;7.47;100.00;98436.13;4838408;59;1141048;-82
2024/02/11 10:56:32;;;;;;;34.25;21.33;;;;;;;7.50;100.00;98431.37;4859753;58;1141059;-79
2024/02/11 11:01:41;;;;;;;69.20;35.73;;;;;;;7.54;100.00;98427.96;4799260;58;1140954;-77
2024/02/11 11:06:49;;;;;;;32.90;22.00;;;;;;;7.60;100.00;98426.06;4837117;59;1140848;-79
2024/02/11 11:11:55;;;;;;;45.53;29.97;;;;;;;7.61;100.00;98418.50;4883128;58;1140704;-78
2024/02/11 11:17:05;;;;;;;34.13;19.83;;;;;;;7.63;100.00;98414.75;4808750;58;1140819;-76
2024/02/11 11:22:11;;;;;;;34.43;22.53;;;;;;;7.66;100.00;98411.80;4755005;59;1141489;-79
2024/02/11 11:27:17;;;;;;;32.10;20.37;;;;;;;7.67;100.00;98402.92;4922388;57;1141023;-77
2024/02/11 11:32:23;;;;;;;38.40;24.18;;;;;;;7.70;100.00;98398.67;4906379;58;1140905;-83
2024/02/11 11:37:29;;;;;;;33.60;20.90;;;;;;;7.72;100.00;98405.10;4865411;57;1140865;-79
2024/02/11 11:42:35;;;;;;;40.03;24.53;;;;;;;7.70;100.00;98394.73;4875057;58;1140859;-81
2024/02/11 11:47:41;;;;;;;33.17;20.90;;;;;;;7.67;100.00;98391.57;4899492;58;1141117;-80
2024/02/11 11:52:49;;;;;;;34.23;20.60;;;;;;;7.68;100.00;98389.28;4954839;58;1140891;-83
2024/02/11 11:58:01;;;;;;;34.03;21.57;;;;;;;7.67;100.00;98383.19;4803939;59;1141090;-78
2024/02/11 12:03:06;;;;;;;30.70;19.62;;;;;;;7.63;100.00;98370.03;4912644;58;1141115;-83
2024/02/11 12:08:12;;;;;;;33.53;20.55;;;;;;;7.60;100.00;98371.64;4828886;59;1141136;-80
2024/02/11 12:13:18;;;;;;;34.70;21.17;;;;;;;7.54;100.00;98369.61;4981157;57;1141102;-77
2024/02/11 12:18:28;;;;;;;38.20;22.27;;;;;;;7.51;100.00;98368.59;4974417;57;1141208;-81
2024/02/11 12:23:34;;;;;;;32.40;18.90;;;;;;;7.49;100.00;98355.25;4806542;58;1141164;-78
2024/02/11 12:34:21;;;;;;;36.98;21.10;;;;;;;7.48;100.00;98349.69;4978367;57;1140974;-80
2024/02/11 12:39:29;;;;;;;36.38;23.67;;;;;;;7.49;100.00;98348.67;4944955;57;1140992;-79
2024/02/11 12:44:37;;;;;;;42.30;22.40;;;;;;;7.47;100.00;98348.03;4913179;57;1140837;-80
2024/02/11 12:49:42;;;;;;;34.97;19.53;;;;;;;7.46;100.00;98343.26;4855873;57;1140991;-76
2024/02/11 12:54:48;;;;;;;35.67;22.00;;;;;;;7.49;100.00;98352.13;4874013;58;1140945;-77
2024/02/11 12:59:56;;;;;;;37.30;21.90;;;;;;;7.50;100.00;98334.06;4897852;58;1141231;-80
2024/02/11 13:05:02;;;;;;;40.65;23.90;;;;;;;7.55;100.00;98334.44;4903051;58;1141312;-78
2024/02/11 13:10:12;;;;;;;50.63;25.57;;;;;;;7.54;100.00;98331.47;4903913;58;1140842;-81
2024/02/11 13:15:17;;;;;;;51.65;28.90;;;;;;;7.49;100.00;98332.41;4919665;57;1141247;-79
2024/02/11 13:20:23;;;;;;;40.38;22.27;;;;;;;7.51;100.00;98325.19;4873560;58;1140971;-82
2024/02/11 13:25:28;;;;;;;39.73;23.77;;;;;;;7.51;100.00;98325.68;4879059;58;1141007;-77
2024/02/11 13:30:34;;;;;;;36.83;23.00;;;;;;;7.51;100.00;98323.87;4923614;58;1140774;-80
2024/02/11 13:35:41;;;;;;;43.57;26.67;;;;;;;7.50;100.00;98315.65;4853116;58;1140941;-81
2024/02/11 13:40:46;;;;;;;37.07;24.33;;;;;;;7.51;100.00;98316.48;4871725;57;1140806;-77
2024/02/11 13:45:52;;;;;;;40.00;27.47;;;;;;;7.51;100.00;98315.98;4900280;58;1141066;-77
2024/02/11 13:50:58;;;;;;;42.55;24.00;;;;;;;7.50;100.00;98314.83;4904583;58;1141043;-79
2024/02/11 13:56:06;;;;;;;44.20;24.47;;;;;;;7.49;100.00;98310.54;4895120;57;1140547;-79
2024/02/11 14:01:17;;;;;;;38.47;24.57;;;;;;;7.46;100.00;98313.50;4880898;58;1140986;-77
2024/02/11 14:06:19;;;;;;;39.27;24.30;;;;;;;7.45;100.00;98316.62;4905723;58;1140878;-79
2024/02/11 14:11:25;;;;;;;47.30;27.17;;;;;;;7.46;100.00;98310.88;4953680;58;1140850;-76
2024/02/11 14:16:31;;;;;;;42.00;24.63;;;;;;;7.47;100.00;98320.41;4801024;59;1141028;-81
2024/02/11 14:21:50;;;;;;;45.70;25.70;;;;;;;7.44;100.00;98318.09;4853780;57;1140811;-80
2024/02/11 14:26:51;;;;;;;36.70;20.73;;;;;;;7.39;100.00;98320.67;4946483;57;1140809;-79
2024/02/11 14:31:58;;;;;;;32.57;19.50;;;;;;;7.36;100.00;98319.66;4846510;57;1141043;-79
2024/02/11 14:37:04;;;;;;;34.98;21.50;;;;;;;7.37;100.00;98312.59;4908830;57;1140848;-81
2024/02/11 14:42:10;;;;;;;31.80;20.93;;;;;;;7.35;100.00;98302.72;4897718;58;1141065;-79
2024/02/11 14:47:15;;;;;;;37.57;22.27;;;;;;;7.31;100.00;98304.84;4845354;58;1140988;-79
2024/02/11 14:52:21;;;;;;;48.10;25.48;;;;;;;7.30;100.00;98313.71;4869904;58;1142103;-78
2024/02/11 14:57:27;;;;;;;44.53;27.67;;;;;;;7.30;100.00;98305.83;4958340;58;1140865;-80
2024/02/11 15:02:33;;;;;;;39.97;24.50;;;;;;;7.29;100.00;98303.34;4919484;58;1140849;-79
2024/02/11 15:07:39;;;;;;;32.20;20.50;;;;;;;7.29;100.00;98305.48;4931677;57;1141172;-81
2024/02/11 15:12:45;;;;;;;39.80;25.80;;;;;;;7.29;100.00;98304.66;4958198;57;1140674;-79
2024/02/11 15:17:51;;;;;;;38.03;25.40;;;;;;;7.26;100.00;98303.64;4883194;57;1141036;-79
2024/02/11 15:22:56;;;;;;;54.30;37.00;;;;;;;7.24;100.00;98302.96;4870631;59;1140850;-77
2024/02/11 15:28:02;;;;;;;51.93;34.43;;;;;;;7.23;100.00;98308.70;4928107;59;1140869;-79
2024/02/11 15:33:17;;;;;;;54.90;34.90;;;;;;;7.23;100.00;98300.82;4926810;59;1140933;-78
2024/02/11 15:38:19;;;;;;;40.23;25.57;;;;;;;7.23;100.00;98305.25;4826401;59;1140971;-79
2024/02/11 15:43:25;;;;;;;38.33;24.53;;;;;;;7.22;100.00;98300.97;4772292;59;1220341;-77
2024/02/11 15:48:31;;;;;;;42.43;27.33;;;;;;;7.20;100.00;98306.38;4796836;59;1140897;-80
2024/02/11 15:53:38;;;;;;;55.50;31.37;;;;;;;7.19;100.00;98302.09;4849683;58;1140900;-78
2024/02/11 15:58:43;;;;;;;66.60;38.07;;;;;;;7.21;100.00;98302.77;4875250;58;1141075;-79
2024/02/11 16:03:49;;;;;;;52.23;32.33;;;;;;;7.22;100.00;98303.59;4797872;58;1210871;-79
2024/02/11 16:08:54;;;;;;;39.20;25.40;;;;;;;7.20;100.00;98305.55;4867985;58;1140889;-80
2024/02/11 16:14:01;;;;;;;35.80;22.03;;;;;;;7.18;100.00;98304.91;4851009;58;1140893;-79
2024/02/11 16:19:07;;;;;;;35.70;23.23;;;;;;;7.17;100.00;98309.83;4827759;59;1140557;-77
2024/02/11 16:24:16;;;;;;;38.17;21.48;;;;;;;7.15;100.00;98304.71;4914496;59;1140677;-78
2024/02/11 16:29:21;;;;;;;37.90;25.07;;;;;;;7.17;100.00;98301.45;4941881;59;1141041;-78
2024/02/11 16:34:27;;;;;;;41.80;24.45;;;;;;;7.19;100.00;98301.27;4963934;57;1141363;-80
2024/02/11 16:39:32;;;;;;;42.27;23.63;;;;;;;7.19;100.00;98303.41;5101048;57;1140851;-77
2024/02/11 16:44:38;;;;;;;51.47;27.57;;;;;;;7.19;100.00;98306.04;5037422;57;1140784;-77
2024/02/11 16:49:47;;;;;;;46.40;25.20;;;;;;;7.20;100.00;98312.95;5036046;57;1142189;-80
2024/02/11 16:54:52;;;;;;;38.73;22.33;;;;;;;7.22;100.00;98304.42;5048126;57;1140615;-78
2024/02/11 16:59:58;;;;;;;47.43;25.63;;;;;;;7.18;100.00;98296.50;5101417;57;1140615;-78
2024/02/11 17:05:04;;;;;;;49.30;31.77;;;;;;;7.24;100.00;98298.53;4892928;59;1141430;-76
2024/02/11 17:10:10;;;;;;;48.87;29.17;;;;;;;7.26;100.00;98293.13;5012279;57;1141375;-81
2024/02/11 17:15:16;;;;;;;91.07;50.07;;;;;;;7.26;100.00;98300.52;5018925;57;1141214;-79
2024/02/11 17:20:25;;;;;;;102.62;64.32;;;;;;;7.29;100.00;98296.77;4978370;57;1141056;-79
2024/02/11 17:25:36;;;;;;;63.33;36.83;;;;;;;7.29;100.00;98296.28;4949877;58;1143244;-79
2024/02/11 17:30:40;;;;;;;62.80;37.90;;;;;;;7.33;100.00;98308.13;4941423;58;1140984;-77
2024/02/11 17:35:48;;;;;;;178.27;101.70;;;;;;;7.33;100.00;98296.29;4902258;58;1140809;-81
2024/02/11 17:40:53;;;;;;;285.63;155.73;;;;;;;7.35;100.00;98299.59;4935949;58;1145321;-77
2024/02/11 17:46:02;;;;;;;285.73;147.40;;;;;;;7.37;100.00;98297.64;4888948;57;1145083;-79
2024/02/11 17:51:07;;;;;;;83.43;35.83;;;;;;;7.37;100.00;98293.70;4909212;57;1145008;-77
2024/02/11 17:56:13;;;;;;;128.77;44.23;;;;;;;7.39;100.00;98300.13;4894972;58;1141477;-78
2024/02/11 18:01:22;;;;;;;84.53;36.27;;;;;;;7.39;100.00;98295.69;4858191;59;1143342;-78
2024/02/11 18:06:26;;;;;;;137.90;53.47;;;;;;;7.43;100.00;98297.53;4694144;60;1141066;-78
2024/02/11 18:11:37;;;;;;;212.23;63.37;;;;;;;7.46;100.00;98297.72;4692669;61;1143202;-78
2024/02/11 18:16:43;;;;;;;177.57;46.83;;;;;;;7.50;100.00;98299.87;4735443;60;1143252;-78
2024/02/11 18:21:53;;;;;;;235.85;54.53;;;;;;;7.53;100.00;98302.20;4875924;58;1142667;-80
2024/02/11 18:26:59;;;;;;;156.33;51.20;;;;;;;7.56;100.00;98295.81;4797995;59;1142982;-80
2024/02/11 18:32:07;;;;;;;99.15;59.93;;;;;;;7.59;100.00;98294.19;4822027;58;1142669;-79
2024/02/11 18:37:18;;;;;;;94.33;56.20;;;;;;;7.64;100.00;98298.48;4925216;58;1141130;-80
2024/02/11 18:42:23;;;;;;;70.32;41.20;;;;;;;7.66;100.00;98293.41;4811768;58;1141021;-78
2024/02/11 18:47:34;;;;;;;106.20;71.60;;;;;;;7.70;100.00;98294.75;4838008;59;1140813;-79
2024/02/11 18:52:39;;;;;;;89.47;61.60;;;;;;;7.74;100.00;98292.16;4838983;57;1142935;-79
2024/02/11 18:57:45;;;;;;;82.57;53.87;;;;;;;7.76;100.00;98288.88;4931611;57;1141026;-79
2024/02/11 19:02:50;;;;;;;61.70;37.77;;;;;;;7.80;100.00;98288.05;4927666;58;1141228;-79
2024/02/11 19:07:58;;;;;;;45.43;28.83;;;;;;;7.85;100.00;98292.37;4959524;58;1140970;-79
2024/02/11 19:13:10;;;;;;;118.87;56.67;;;;;;;7.88;100.00;98289.92;4934239;58;1141077;-79
2024/02/11 19:18:15;;;;;;;99.77;42.58;;;;;;;7.90;100.00;98292.73;4887202;58;1143930;-79
2024/02/11 19:23:23;;;;;;;70.15;37.28;;;;;;;7.94;100.00;98293.25;4869650;59;1141103;-80
2024/02/11 19:28:29;;;;;;;68.80;37.17;;;;;;;7.96;100.00;98292.09;4927814;58;1140645;-80
2024/02/11 19:33:36;;;;;;;69.63;36.07;;;;;;;7.99;100.00;98294.41;4935418;58;1140550;-79
2024/02/11 19:38:42;;;;;;;57.90;33.63;;;;;;;8.04;100.00;98288.69;4960830;58;1141326;-79
2024/02/11 19:43:50;;;;;;;74.27;37.40;;;;;;;8.06;100.00;98288.05;4881569;58;1140751;-80
2024/02/11 19:48:59;;;;;;;66.97;34.53;;;;;;;8.08;100.00;98280.33;4874288;58;1141080;-79
2024/02/11 19:54:10;;;;;;;73.13;35.60;;;;;;;8.10;100.00;98284.92;4850450;58;1140837;-80
2024/02/11 19:59:14;;;;;;;66.27;35.90;;;;;;;8.12;100.00;98284.27;4903433;57;1141141;-80
2024/02/11 20:04:28;;;;;;;67.27;37.03;;;;;;;8.14;100.00;98281.48;4791620;59;1141366;-79
2024/02/11 20:09:36;;;;;;;69.70;35.68;;;;;;;8.17;100.00;98279.86;4783323;58;1141112;-79
2024/02/11 20:14:42;;;;;;;60.55;34.10;;;;;;;8.21;100.00;98283.00;4838629;57;1141135;-80
2024/02/11 20:19:48;;;;;;;57.83;35.43;;;;;;;8.23;100.00;98285.82;4839032;58;1140753;-80
2024/02/11 20:24:58;;;;;;;58.00;31.00;;;;;;;8.26;100.00;98281.53;4847314;58;1140798;-80
2024/02/11 20:30:08;;;;;;;73.13;38.10;;;;;;;8.28;100.00;98279.56;4776464;59;1140789;-79
2024/02/11 20:35:14;;;;;;;46.43;27.03;;;;;;;8.31;100.00;98282.38;4839203;58;1140816;-82
2024/02/11 20:40:23;;;;;;;47.60;26.53;;;;;;;8.33;100.00;98279.95;4945543;57;1140931;-82
2024/02/11 20:45:35;;;;;;;42.05;24.45;;;;;;;8.34;100.00;98279.46;4919811;58;1141029;-83
2024/02/11 20:50:41;;;;;;;45.07;24.83;;;;;;;8.37;100.00;98288.37;4901065;58;1141222;-83
2024/02/11 20:55:51;;;;;;;43.37;24.03;;;;;;;8.40;100.00;98282.78;4888184;58;1140840;-82
2024/02/11 21:00:57;;;;;;;40.90;22.80;;;;;;;8.41;100.00;98284.41;4941358;58;1141183;-82
2024/02/11 21:06:02;;;;;;;39.37;24.63;;;;;;;8.44;100.00;98284.92;4925146;58;1141606;-82
2024/02/11 21:11:09;;;;;;;51.53;28.20;;;;;;;8.45;100.00;98287.89;4833963;58;1140808;-83
2024/02/11 21:16:17;;;;;;;53.60;28.23;;;;;;;8.47;100.00;98286.41;4768535;57;1141122;-83
2024/02/11 21:21:24;;;;;;;48.17;24.40;;;;;;;8.50;100.00;98286.09;4858014;57;1140813;-82
2024/02/11 21:26:31;;;;;;;40.63;20.30;;;;;;;8.52;100.00;98285.45;4849798;58;1141147;-83
2024/02/11 21:31:37;;;;;;;41.45;23.15;;;;;;;8.53;100.00;98295.00;4887642;58;1141121;-82
2024/02/11 21:36:45;;;;;;;37.13;20.93;;;;;;;8.55;100.00;98293.04;4927763;58;1141174;-83
2024/02/11 21:41:51;;;;;;;32.03;19.60;;;;;;;8.57;100.00;98295.48;4866979;58;1140949;-83
2024/02/11 21:46:57;;;;;;;31.80;20.60;;;;;;;8.59;100.00;98293.03;4866866;58;1140806;-83
2024/02/11 21:52:03;;;;;;;35.57;22.50;;;;;;;8.62;100.00;98291.39;4858543;58;1140988;-83
2024/02/11 21:57:08;;;;;;;32.43;20.93;;;;;;;8.63;100.00;98293.53;4874759;58;1141151;-82
2024/02/11 22:02:14;;;;;;;40.43;22.10;;;;;;;8.62;100.00;98287.94;4883533;58;1141459;-82
2024/02/11 22:07:21;;;;;;;36.70;20.68;;;;;;;8.62;100.00;98295.34;4873952;58;1141213;-82
2024/02/11 22:12:29;;;;;;;39.17;22.70;;;;;;;8.64;100.00;98293.37;4883803;59;1141138;-83
2024/02/11 22:17:36;;;;;;;37.37;20.97;;;;;;;8.65;100.00;98295.03;4846951;58;1140965;-83
2024/02/11 22:22:42;;;;;;;33.13;19.77;;;;;;;8.66;100.00;98292.73;4868700;58;1140916;-83
2024/02/11 22:27:48;;;;;;;30.03;18.93;;;;;;;8.68;100.00;98293.89;4914461;58;1140945;-82
2024/02/11 22:32:53;;;;;;;32.87;20.20;;;;;;;8.69;100.00;98293.73;4919266;58;1140660;-82
2024/02/11 22:37:59;;;;;;;28.70;19.73;;;;;;;8.69;100.00;98297.69;4907939;58;1140893;-82
2024/02/11 22:43:05;;;;;;;29.17;20.23;;;;;;;8.70;100.00;98299.34;4908156;57;1140891;-83
2024/02/11 22:48:10;;;;;;;37.00;20.55;;;;;;;8.69;100.00;98296.86;4872987;58;1141658;-82
2024/02/11 22:53:17;;;;;;;27.13;19.33;;;;;;;8.69;100.00;98294.22;4879928;58;1141145;-83
2024/02/11 22:58:23;;;;;;;26.87;18.00;;;;;;;8.71;100.00;98290.41;4864290;58;1141014;-83
2024/02/11 23:03:29;;;;;;;30.47;20.27;;;;;;;8.72;100.00;98294.70;4893642;58;1141766;-83